createdAt,value
2023-03-22T00:01:17.289Z,10.40
2023-03-22T00:03:44.200Z,10.30
2023-03-22T00:06:11.300Z,10.30
2023-03-22T00:08:38.941Z,10.20
2023-03-22T00:11:06.612Z,10.20
2023-03-22T00:13:35.728Z,10.20
2023-03-22T00:16:04.394Z,10.10
2023-03-22T00:18:31.560Z,10.10
2023-03-22T00:20:59.614Z,10.00
2023-03-22T00:23:27.747Z,9.90
2023-03-22T00:25:55.108Z,9.80
2023-03-22T00:28:22.704Z,9.70
2023-03-22T00:30:59.234Z,9.70
2023-03-22T00:33:26.418Z,9.80
2023-03-22T00:35:57.525Z,9.80
2023-03-22T00:38:39.659Z,9.90
2023-03-22T00:41:17.337Z,9.80
2023-03-22T00:43:45.626Z,9.90
2023-03-22T00:46:13.659Z,9.90
2023-03-22T00:48:40.554Z,9.90
2023-03-22T00:51:08.368Z,9.90
2023-03-22T00:53:37.011Z,10.00
2023-03-22T00:56:05.547Z,10.00
2023-03-22T00:58:32.807Z,10.00
2023-03-22T01:00:59.754Z,10.10
2023-03-22T01:03:26.590Z,10.10
2023-03-22T01:05:56.759Z,10.00
2023-03-22T01:08:24.428Z,10.00
2023-03-22T01:10:51.552Z,9.90
2023-03-22T01:13:18.923Z,9.90
2023-03-22T01:15:47.932Z,9.80
2023-03-22T01:18:14.865Z,9.70
2023-03-22T01:20:42.230Z,9.60
2023-03-22T01:23:09.709Z,9.50
2023-03-22T01:25:37.063Z,9.50
2023-03-22T01:28:06.777Z,9.50
2023-03-22T01:30:33.782Z,9.40
2023-03-22T01:33:00.928Z,9.40
2023-03-22T01:35:27.901Z,9.60
2023-03-22T01:37:54.778Z,9.60
2023-03-22T01:40:21.753Z,9.60
2023-03-22T01:42:48.628Z,9.50
2023-03-22T01:45:15.926Z,9.50
2023-03-22T01:47:46.208Z,9.40
2023-03-22T01:50:14.121Z,9.50
2023-03-22T01:52:41.419Z,9.40
2023-03-22T01:55:09.525Z,9.40
2023-03-22T01:57:37.665Z,9.40
2023-03-22T02:00:11.059Z,9.40
2023-03-22T02:02:38.065Z,9.40
2023-03-22T02:05:05.255Z,9.50
2023-03-22T02:07:32.253Z,9.40
2023-03-22T02:09:59.786Z,9.30
2023-03-22T02:12:26.713Z,9.30
2023-03-22T02:15:15.927Z,9.20
2023-03-22T02:18:06.541Z,9.20
2023-03-22T02:20:53.612Z,9.10
2023-03-22T02:23:57.827Z,9.10
2023-03-22T02:26:33.715Z,9.00
2023-03-22T02:29:08.193Z,8.90
2023-03-22T02:32:04.252Z,8.80
2023-03-22T02:34:46.435Z,8.80
2023-03-22T02:37:47.065Z,8.80
2023-03-22T02:40:20.963Z,8.70
2023-03-22T02:43:00.860Z,8.80
2023-03-22T02:45:58.094Z,8.80
2023-03-22T02:48:32.181Z,8.80
2023-03-22T02:51:27.088Z,8.80
2023-03-22T02:54:04.758Z,8.70
2023-03-22T02:56:39.364Z,8.70
2023-03-22T02:59:08.576Z,8.60
2023-03-22T03:01:52.686Z,8.60
2023-03-22T03:04:28.547Z,8.70
2023-03-22T03:07:09.247Z,8.70
2023-03-22T03:09:40.111Z,8.70
2023-03-22T03:12:27.326Z,8.70
2023-03-22T03:14:54.776Z,8.70
2023-03-22T03:17:49.634Z,8.80
2023-03-22T03:20:34.992Z,8.90
2023-03-22T03:23:37.052Z,8.80
2023-03-22T03:26:20.625Z,8.80
2023-03-22T03:29:08.747Z,8.70
2023-03-22T03:31:45.582Z,8.70
2023-03-22T03:34:31.929Z,8.80
2023-03-22T03:37:17.437Z,8.70
2023-03-22T03:39:54.696Z,8.70
2023-03-22T03:42:25.166Z,8.90
2023-03-22T03:44:52.073Z,8.90
2023-03-22T03:47:19.410Z,8.90
2023-03-22T03:49:46.709Z,8.70
2023-03-22T03:52:14.129Z,8.70
2023-03-22T03:54:41.192Z,8.70
2023-03-22T03:57:08.048Z,8.80
2023-03-22T03:59:34.893Z,8.90
2023-03-22T04:02:02.221Z,9.00
2023-03-22T04:04:29.995Z,9.00
2023-03-22T04:06:59.718Z,9.10
2023-03-22T04:09:37.463Z,9.00
2023-03-22T04:12:04.923Z,9.00
2023-03-22T04:14:32.075Z,9.00
2023-03-22T04:16:58.931Z,9.00
2023-03-22T04:19:26.766Z,9.00
2023-03-22T04:21:54.559Z,9.10
2023-03-22T04:24:22.125Z,9.20
2023-03-22T04:26:49.207Z,9.30
2023-03-22T04:29:16.162Z,9.50
2023-03-22T04:31:43.334Z,9.50
2023-03-22T04:34:10.238Z,9.50
2023-03-22T04:36:39.671Z,9.60
2023-03-22T04:39:10.755Z,9.60
2023-03-22T04:41:38.020Z,9.70
2023-03-22T04:44:06.007Z,9.70
2023-03-22T04:46:34.988Z,9.80
2023-03-22T04:49:03.318Z,9.70
2023-03-22T04:51:31.977Z,9.60
2023-03-22T04:53:59.301Z,9.60
2023-03-22T04:56:26.244Z,9.60
2023-03-22T04:58:53.904Z,9.80
2023-03-22T05:01:20.844Z,9.90
2023-03-22T05:03:47.868Z,10.00
2023-03-22T05:06:15.576Z,10.00
2023-03-22T05:08:43.449Z,10.00
2023-03-22T05:11:16.635Z,10.10
2023-03-22T05:13:43.844Z,10.20
2023-03-22T05:16:11.228Z,10.20
2023-03-22T05:18:42.440Z,10.20
2023-03-22T05:21:22.004Z,10.10
2023-03-22T05:23:51.475Z,10.10
2023-03-22T05:26:20.557Z,10.10
2023-03-22T05:28:47.372Z,10.30
2023-03-22T05:31:15.774Z,10.30
2023-03-22T05:33:43.032Z,10.20
2023-03-22T05:36:11.377Z,10.40
2023-03-22T05:38:38.671Z,10.40
2023-03-22T05:41:05.751Z,10.50
2023-03-22T05:43:32.883Z,10.60
2023-03-22T05:45:59.755Z,10.70
2023-03-22T05:48:26.934Z,10.70
2023-03-22T05:50:53.826Z,10.80
2023-03-22T05:53:20.803Z,10.80
2023-03-22T05:55:47.600Z,10.90
2023-03-22T05:58:19.182Z,11.10
2023-03-22T06:00:49.938Z,11.30
2023-03-22T06:03:18.373Z,11.40
2023-03-22T06:05:46.619Z,11.30
2023-03-22T06:08:13.452Z,11.20
2023-03-22T06:10:40.448Z,11.20
2023-03-22T06:13:07.831Z,11.20
2023-03-22T06:15:35.317Z,11.20
2023-03-22T06:18:02.174Z,11.20
2023-03-22T06:20:29.017Z,11.30
2023-03-22T06:22:56.205Z,11.50
2023-03-22T06:25:23.481Z,11.50
2023-03-22T06:27:50.948Z,11.60
2023-03-22T06:30:19.159Z,11.60
2023-03-22T06:32:46.037Z,11.80
2023-03-22T06:35:13.465Z,12.00
2023-03-22T06:37:40.393Z,12.10
2023-03-22T06:40:08.235Z,12.10
2023-03-22T06:42:35.872Z,12.30
2023-03-22T06:45:03.202Z,12.50
2023-03-22T06:47:29.985Z,12.70
2023-03-22T06:49:57.093Z,12.80
2023-03-22T06:52:24.529Z,12.90
2023-03-22T06:54:51.865Z,13.00
2023-03-22T06:57:19.060Z,13.20
2023-03-22T06:59:46.334Z,13.40
2023-03-22T07:02:13.592Z,13.50
2023-03-22T07:04:40.613Z,13.40
2023-03-22T07:07:08.032Z,13.60
2023-03-22T07:09:34.877Z,13.70
2023-03-22T07:12:01.666Z,13.90
2023-03-22T07:14:29.127Z,14.00
2023-03-22T07:16:56.995Z,14.10
2023-03-22T07:19:23.849Z,14.10
2023-03-22T07:21:50.792Z,14.30
2023-03-22T07:24:18.009Z,14.30
2023-03-22T07:26:44.891Z,14.40
2023-03-22T07:29:12.206Z,14.50
2023-03-22T07:31:40.103Z,14.50
2023-03-22T07:34:07.292Z,14.60
2023-03-22T07:36:34.506Z,14.70
2023-03-22T07:39:01.833Z,14.90
2023-03-22T07:41:30.244Z,14.80
2023-03-22T07:44:07.906Z,14.70
2023-03-22T07:46:42.174Z,14.70
2023-03-22T07:49:09.029Z,14.70
2023-03-22T07:51:35.919Z,14.60
2023-03-22T07:54:03.042Z,14.60
2023-03-22T07:56:30.537Z,14.80
2023-03-22T07:58:57.389Z,15.00
2023-03-22T08:01:24.867Z,15.30
2023-03-22T08:03:52.045Z,15.50
2023-03-22T08:06:21.593Z,15.70
2023-03-22T08:08:48.472Z,16.00
2023-03-22T08:11:15.602Z,16.00
2023-03-22T08:13:42.394Z,16.10
2023-03-22T08:16:09.301Z,16.30
2023-03-22T08:18:36.227Z,16.40
2023-03-22T08:21:03.673Z,16.40
2023-03-22T08:23:40.802Z,16.50
2023-03-22T08:26:09.716Z,16.50
2023-03-22T08:28:36.917Z,16.50
2023-03-22T08:31:15.316Z,16.50
2023-03-22T08:33:43.209Z,16.50
2023-03-22T08:36:15.378Z,16.50
2023-03-22T08:38:45.391Z,16.40
2023-03-22T08:41:13.893Z,16.40
2023-03-22T08:43:40.723Z,16.30
2023-03-22T08:46:08.371Z,16.20
2023-03-22T08:48:38.492Z,16.20
2023-03-22T08:51:06.781Z,16.20
2023-03-22T08:53:33.652Z,16.10
2023-03-22T08:56:01.868Z,16.10
2023-03-22T08:58:29.126Z,16.00
2023-03-22T09:00:56.488Z,16.00
2023-03-22T09:03:25.002Z,16.10
2023-03-22T09:05:51.907Z,16.20
2023-03-22T09:08:19.930Z,16.30
2023-03-22T09:10:51.524Z,16.50
2023-03-22T09:13:19.126Z,16.60
2023-03-22T09:15:46.495Z,16.70
2023-03-22T09:18:14.472Z,16.90
2023-03-22T09:20:41.706Z,17.00
2023-03-22T09:23:09.166Z,17.10
2023-03-22T09:25:36.033Z,17.30
2023-03-22T09:28:04.205Z,17.30
2023-03-22T09:30:31.536Z,17.40
2023-03-22T09:32:58.802Z,17.60
2023-03-22T09:35:26.207Z,17.70
2023-03-22T09:37:54.691Z,17.80
2023-03-22T09:40:29.864Z,18.00
2023-03-22T09:43:02.359Z,18.20
2023-03-22T09:45:46.385Z,18.40
2023-03-22T09:48:34.872Z,18.70
2023-03-22T09:51:04.601Z,18.90
2023-03-22T09:53:33.029Z,19.00
2023-03-22T09:56:24.977Z,19.20
2023-03-22T09:59:00.818Z,19.50
2023-03-22T10:01:47.968Z,19.80
2023-03-22T10:04:33.442Z,20.20
2023-03-22T10:07:27.900Z,20.50
2023-03-22T10:10:11.282Z,20.80
2023-03-22T10:12:53.512Z,21.20
2023-03-22T10:15:27.735Z,21.60
2023-03-22T10:17:56.570Z,21.80
2023-03-22T10:20:51.220Z,21.80
2023-03-22T10:23:28.161Z,21.90
2023-03-22T10:25:57.470Z,22.10
2023-03-22T10:28:31.766Z,22.60
2023-03-22T10:30:59.116Z,23.50
2023-03-22T10:33:31.961Z,24.00
2023-03-22T10:35:59.571Z,24.80
2023-03-22T10:38:29.731Z,25.30
2023-03-22T10:40:59.223Z,26.30
2023-03-22T10:43:34.935Z,27.50
2023-03-22T10:46:05.521Z,28.80
2023-03-22T10:48:39.641Z,30.10
2023-03-22T10:51:07.723Z,31.00
2023-03-22T10:53:39.468Z,31.60
2023-03-22T10:56:15.790Z,31.90
2023-03-22T10:58:42.761Z,32.00
2023-03-22T11:01:13.129Z,32.60
2023-03-22T11:03:43.654Z,33.40
2023-03-22T11:06:13.608Z,34.30
2023-03-22T11:08:47.384Z,34.60
2023-03-22T11:11:35.530Z,35.50
2023-03-22T11:14:08.520Z,34.90
2023-03-22T11:16:57.920Z,34.00
2023-03-22T11:19:33.633Z,33.00
2023-03-22T11:22:02.667Z,33.00
2023-03-22T11:24:32.214Z,33.90
2023-03-22T11:27:07.616Z,35.40
2023-03-22T11:29:45.251Z,35.80
2023-03-22T11:32:39.524Z,36.30
2023-03-22T11:35:14.189Z,36.90
2023-03-22T11:37:52.218Z,37.60
2023-03-22T11:40:26.556Z,38.40
2023-03-22T11:43:09.850Z,39.60
2023-03-22T11:45:41.451Z,40.20
2023-03-22T11:48:14.986Z,40.80
2023-03-22T11:50:44.522Z,41.10
2023-03-22T11:53:22.683Z,41.10
2023-03-22T11:55:51.547Z,41.60
2023-03-22T11:58:50.429Z,42.40
2023-03-22T12:01:25.416Z,42.30
2023-03-22T12:03:56.666Z,42.70
2023-03-22T12:06:27.855Z,43.00
2023-03-22T12:09:26.025Z,43.60
2023-03-22T12:11:57.248Z,43.50
2023-03-22T12:14:48.532Z,43.40
2023-03-22T12:17:18.428Z,42.40
2023-03-22T12:19:57.372Z,42.20
2023-03-22T12:22:31.513Z,41.60
2023-03-22T12:24:59.368Z,41.70
2023-03-22T12:27:36.018Z,41.50
2023-03-22T12:30:08.456Z,41.90
2023-03-22T12:32:57.541Z,39.90
2023-03-22T12:35:35.219Z,38.30
2023-03-22T12:38:24.345Z,37.00
2023-03-22T12:40:53.630Z,37.40
2023-03-22T12:43:39.043Z,37.30
2023-03-22T12:46:07.119Z,35.90
2023-03-22T12:48:46.598Z,34.40
2023-03-22T12:51:14.951Z,32.60
2023-03-22T12:53:51.762Z,32.40
2023-03-22T12:56:26.280Z,33.80
2023-03-22T12:58:59.180Z,35.30
2023-03-22T13:01:37.773Z,35.40
2023-03-22T13:04:29.114Z,35.70
2023-03-22T13:07:16.534Z,37.30
2023-03-22T13:09:48.766Z,38.20
2023-03-22T13:12:18.296Z,39.60
2023-03-22T13:14:51.100Z,39.90
2023-03-22T13:17:24.372Z,39.10
2023-03-22T13:19:54.209Z,38.40
2023-03-22T13:22:30.587Z,38.80
2023-03-22T13:25:17.241Z,39.30
2023-03-22T13:27:53.854Z,40.80
2023-03-22T13:30:21.802Z,41.60
2023-03-22T13:32:56.425Z,42.10
2023-03-22T13:35:28.353Z,41.20
2023-03-22T13:38:03.004Z,41.60
2023-03-22T13:40:35.145Z,41.40
2023-03-22T13:43:21.277Z,40.90
2023-03-22T13:46:27.046Z,40.20
2023-03-22T13:49:17.149Z,38.70
2023-03-22T13:51:44.812Z,38.40
2023-03-22T13:54:16.472Z,38.60
2023-03-22T13:56:58.540Z,39.10
2023-03-22T13:59:30.026Z,39.60
2023-03-22T14:02:24.431Z,39.80
2023-03-22T14:05:14.785Z,40.90
2023-03-22T14:07:49.121Z,42.00
2023-03-22T14:10:24.467Z,42.60
2023-03-22T14:12:54.082Z,43.60
2023-03-22T14:15:27.198Z,43.40
2023-03-22T14:18:07.195Z,43.10
2023-03-22T14:20:37.093Z,43.00
